Ark, Virginia
Current Conditions -  °F | °C
As of 6:35 AM on Tuesday 21 Oct 2014 (Local Time) from KFYJ Reporting Station
Scattered Clouds Scattered Clouds  
Wind Chill: 58°   Ceiling: Unl
Heat Index: 58°   Visibility: 10mi
Dew Point: 53°   Wind: 0mph
Humidity: 82%   Direction: NA
Pressure: 29.89"   Gusts: NA
Location:  37.44°N, 76.58°W
Report Text: KFYJ 211035Z AUTO 00000KT 10SM SCT120 15/12 A2989 RMK AO2 T01460116
Loading
Personal Weather Stations






























Interactive Weather Map
Tropical Storm Tracking
New forecast layout! Learn more

10-Day Weather Forecast

Advertisements
Track Severe Weather on mobile